ESMT

Halmstad Airport

Halmstad, Sweden
METAR ESMT 152050Z AUTO 32006KT 9999 NCD 17/14 Q1016
Observed Flight Rules
Jul-15 @ 20:50 UTC (13 minutes ago) Visual Flight Rules
Wind Visibility Clouds
320° at 6 knots 10,000+ meters
  • Clear skies
Temperatures Readings
Current 17°C / 63°F
Dewpoint 14°C / 57°F
Humidity 83%
Altimeter 30" Hg
Pressure 1016 hPa
Elevation 30
METAR ESMT 152050Z AUTO 32006KT 9999 NCD 17/14 Q1016
Observed Flight Rules
Jul-15 @ 20:50 UTC
(13 minutes ago)
VFR
Wind Visibility
320° at 6 knots 10,000+ meters
Clouds
  • Clear skies
Temperature Dewpoint
17°C / 63°F 14°C / 57°F
Humidity Altimeter Pressure
83% 30" Hg 1016 hPa